No particular awareness of the weather is required.    There are no Weather-warnings


Meteo18 Weather Cam more information Meteo18 Weather Cam


Thunder radar more information blitzortung!


Rain radar more information rain snow radar


Visit our other weather sites:

Template documentation
and downloads

And another site



Weather Underground History page Text

Daily Summary for September 24, 2017 Units:  English    Metric   Both
« Previous Day
Next Day »
Daily Weekly Monthly Yearly Custom
  High: Low: Average:
Temperature: 76.5 °F 51.1 °F 62.8 °F
Dew Point: 57.9 °F 49.1 °F 53.6 °F
Humidity: 94 % 47 % 74 %
Wind Speed: 6 mph 0 mph 0.5 mph
Wind Gust: 7 mph - -
Wind:- - SE
Pressure: 30.2 in 30.1 in -
Precipitation: 0 in    
Historical Graphs
 
 
Tabular Data for September 24, 2017
Time Temperature Dew Point Pressure Wind Wind Speed Wind Gust Humidity Rainfall Rate (Hourly)
00:02 57.7 °F 52.7 °F 30.2 in Calm   3 mph 83 % 0 in
00:12 57.7 °F 52.9 °F 30.2 in NNW 2 mph 3 mph 84 % 0 in
00:17 57.7 °F 52.7 °F 30.2 in Calm   3 mph 83 % 0 in
00:22 57.4 °F 52.5 °F 30.2 in Calm   4 mph 84 % 0 in
00:32 57 °F 52.5 °F 30.2 in Calm   3 mph 85 % 0 in
00:37 57 °F 52.5 °F 30.2 in Calm   3 mph 85 % 0 in
00:42 57 °F 52.5 °F 30.2 in Calm   3 mph 85 % 0 in
00:47 56.7 °F 52.2 °F 30.2 in Calm   2 mph 85 % 0 in
00:52 56.3 °F 51.8 °F 30.2 in Calm   2 mph 85 % 0 in
00:57 56.1 °F 52 °F 30.2 in Calm   1 mph 86 % 0 in
01:02 55.9 °F 51.8 °F 30.2 in Calm   1 mph 86 % 0 in
01:07 55.9 °F 51.8 °F 30.2 in Calm   1 mph 86 % 0 in
01:12 55.8 °F 51.6 °F 30.2 in Calm   1 mph 86 % 0 in
01:17 55.6 °F 51.8 °F 30.2 in Calm   1 mph 87 % 0 in
01:22 55.6 °F 51.8 °F 30.2 in Calm   1 mph 87 % 0 in
01:27 55.6 °F 51.8 °F 30.2 in Calm   1 mph 87 % 0 in
01:32 55.6 °F 52.2 °F 30.2 in Calm   1 mph 88 % 0 in
01:37 55.4 °F 52 °F 30.1 in NNW 1 mph 1 mph 88 % 0 in
01:42 55.4 °F 52 °F 30.1 in Calm   1 mph 88 % 0 in
01:52 55.6 °F 52.2 °F 30.2 in Calm   1 mph 88 % 0 in
01:57 55.6 °F 51.8 °F 30.2 in Calm   1 mph 87 % 0 in
02:02 55.2 °F 51.8 °F 30.2 in Calm   1 mph 88 % 0 in
02:07 55 °F 51.3 °F 30.2 in Calm   1 mph 87 % 0 in
02:12 54.5 °F 51.3 °F 30.2 in Calm   1 mph 89 % 0 in
02:17 54.7 °F 51.4 °F 30.2 in NNW 1 mph 1 mph 89 % 0 in
02:22 55 °F 51.8 °F 30.2 in Calm   1 mph 89 % 0 in
02:32 55.4 °F 52 °F 30.2 in North 1 mph 2 mph 88 % 0 in
02:37 55.2 °F 51.4 °F 30.2 in Calm   2 mph 87 % 0 in
02:42 55.2 °F 51.4 °F 30.2 in Calm   2 mph 87 % 0 in
02:52 54.7 °F 50.9 °F 30.2 in Calm   2 mph 87 % 0 in
02:57 54.7 °F 51.3 °F 30.2 in Calm   1 mph 88 % 0 in
03:02 54.5 °F 51.3 °F 30.2 in Calm   1 mph 89 % 0 in
03:07 54.5 °F 51.3 °F 30.2 in NNW 1 mph 2 mph 89 % 0 in
03:12 54.7 °F 51.4 °F 30.2 in Calm   2 mph 89 % 0 in
03:17 54.9 °F 51.6 °F 30.2 in Calm   2 mph 89 % 0 in
03:22 54.7 °F 51.3 °F 30.2 in NNW 1 mph 2 mph 88 % 0 in
03:27 54.7 °F 51.4 °F 30.2 in Calm   3 mph 89 % 0 in
03:32 54.5 °F 51.3 °F 30.2 in Calm   3 mph 89 % 0 in
03:37 54.3 °F 51.1 °F 30.2 in NNW 1 mph 3 mph 89 % 0 in
03:42 54.1 °F 50.9 °F 30.1 in North 1 mph 3 mph 89 % 0 in
03:47 54 °F 50.7 °F 30.1 in Calm   2 mph 89 % 0 in
03:52 53.8 °F 50.9 °F 30.1 in North 1 mph 2 mph 90 % 0 in
03:57 53.8 °F 50.9 °F 30.1 in NNW 1 mph 2 mph 90 % 0 in
04:02 53.8 °F 50.9 °F 30.1 in North 1 mph 2 mph 90 % 0 in
04:12 53.4 °F 50.5 °F 30.1 in Calm   2 mph 90 % 0 in
04:17 53.4 °F 50.5 °F 30.1 in Calm   2 mph 90 % 0 in
04:22 53.4 °F 50.9 °F 30.1 in Calm   2 mph 91 % 0 in
04:32 53.4 °F 50.9 °F 30.1 in NNW 1 mph   91 % 0 in
04:37 53.2 °F 50.7 °F 30.1 in Calm   2 mph 91 % 0 in
04:42 53.2 °F 50.4 °F 30.1 in Calm   2 mph 90 % 0 in
04:52 53.1 °F 50.2 °F 30.1 in Calm   2 mph 90 % 0 in
05:02 53.1 °F 50.5 °F 30.1 in North 1 mph 2 mph 91 % 0 in
05:07 53.1 °F 50.5 °F 30.1 in Calm   1 mph 91 % 0 in
05:22 52.3 °F 49.8 °F 30.1 in North 1 mph 1 mph 91 % 0 in
05:32 52.3 °F 49.8 °F 30.1 in North 1 mph 1 mph 91 % 0 in
05:37 52.2 °F 49.8 °F 30.1 in Calm   1 mph 92 % 0 in
05:42 52.2 °F 49.8 °F 30.1 in Calm   1 mph 92 % 0 in
05:52 52 °F 49.6 °F 30.1 in Calm   1 mph 92 % 0 in
05:57 51.8 °F 49.6 °F 30.1 in Calm     92 % 0 in
06:02 51.6 °F 49.5 °F 30.1 in Calm     92 % 0 in
06:12 51.6 °F 49.6 °F 30.1 in Calm     93 % 0 in
06:17 51.6 °F 49.6 °F 30.1 in Calm     93 % 0 in
06:22 52 °F 50 °F 30.1 in Calm     93 % 0 in
06:27 51.8 °F 49.8 °F 30.1 in Calm     93 % 0 in
06:32 51.8 °F 50.2 °F 30.1 in Calm     94 % 0 in
06:42 51.6 °F 49.6 °F 30.1 in Calm     93 % 0 in
06:47 51.6 °F 49.6 °F 30.1 in Calm     93 % 0 in
06:52 51.4 °F 49.5 °F 30.1 in Calm     93 % 0 in
06:57 51.3 °F 49.3 °F 30.1 in Calm     93 % 0 in
07:02 51.4 °F 49.8 °F 30.1 in Calm     94 % 0 in
07:12 51.3 °F 49.3 °F 30.1 in Calm     93 % 0 in
07:17 51.3 °F 49.3 °F 30.1 in Calm     93 % 0 in
07:22 51.3 °F 49.3 °F 30.1 in Calm     93 % 0 in
07:32 51.3 °F 49.3 °F 30.1 in Calm     93 % 0 in
07:42 51.1 °F 49.1 °F 30.1 in Calm     93 % 0 in
07:47 51.1 °F 49.5 °F 30.1 in Calm     94 % 0 in
07:57 51.1 °F 49.5 °F 30.1 in Calm     94 % 0 in
08:02 51.3 °F 49.6 °F 30.1 in Calm     94 % 0 in
08:07 51.4 °F 49.8 °F 30.2 in Calm     94 % 0 in
08:12 51.4 °F 49.8 °F 30.2 in Calm     94 % 0 in
08:17 51.4 °F 49.8 °F 30.1 in Calm     94 % 0 in
08:22 51.6 °F 50 °F 30.1 in Calm     94 % 0 in
08:32 51.6 °F 49.6 °F 30.2 in Calm     93 % 0 in
08:42 51.6 °F 50 °F 30.2 in Calm     94 % 0 in
08:52 51.4 °F 49.8 °F 30.2 in Calm     94 % 0 in
09:02 51.8 °F 50.2 °F 30.2 in Calm     94 % 0 in
09:07 52 °F 50.4 °F 30.2 in NNE 2 mph   94 % 0 in
09:12 52.5 °F 50.9 °F 30.2 in NNE 1 mph   94 % 0 in
09:17 53.2 °F 51.6 °F 30.2 in Calm   3 mph 94 % 0 in
09:22 54.3 °F 52.7 °F 30.2 in North 1 mph 3 mph 94 % 0 in
09:32 55.8 °F 53.2 °F 30.2 in Calm   2 mph 91 % 0 in
09:42 57 °F 53.4 °F 30.2 in NE 1 mph 2 mph 88 % 0 in
09:47 57 °F 53.2 °F 30.2 in Calm   2 mph 87 % 0 in
09:52 57.6 °F 53.8 °F 30.2 in Calm   2 mph 87 % 0 in
10:02 58.8 °F 53.6 °F 30.2 in Calm   2 mph 83 % 0 in
10:07 59.4 °F 53.6 °F 30.2 in Calm   1 mph 81 % 0 in
10:17 61 °F 54.5 °F 30.2 in Calm   2 mph 79 % 0 in
10:22 61.5 °F 54.3 °F 30.2 in Calm   2 mph 77 % 0 in
10:32 62.1 °F 54.3 °F 30.2 in Calm   2 mph 76 % 0 in
10:37 62.4 °F 54.7 °F 30.2 in Calm   4 mph 76 % 0 in
10:42 62.8 °F 55 °F 30.2 in Calm   4 mph 76 % 0 in
10:47 63.3 °F 55.2 °F 30.2 in Calm   4 mph 75 % 0 in
10:52 63.3 °F 54.9 °F 30.2 in Calm   4 mph 74 % 0 in
11:02 63.9 °F 55.4 °F 30.2 in Calm   2 mph 74 % 0 in
11:12 64.8 °F 55.6 °F 30.2 in Calm   2 mph 72 % 0 in
11:17 64.9 °F 56.1 °F 30.2 in Calm   3 mph 73 % 0 in
11:22 65.3 °F 56.5 °F 30.2 in SSE 1 mph 3 mph 73 % 0 in
11:32 65.8 °F 57 °F 30.2 in SE 1 mph 3 mph 73 % 0 in
11:42 66.4 °F 56.7 °F 30.2 in Calm   3 mph 71 % 0 in
11:52 66.2 °F 56.8 °F 30.2 in Calm   3 mph 72 % 0 in
12:02 67.3 °F 56.8 °F 30.2 in East 1 mph 4 mph 69 % 0 in
12:12 68.2 °F 57.6 °F 30.2 in Calm   4 mph 69 % 0 in
12:17 68.4 °F 56.5 °F 30.2 in Calm   4 mph 66 % 0 in
12:22 68.5 °F 56.7 °F 30.2 in ENE 3 mph 4 mph 66 % 0 in
12:27 68.4 °F 56.1 °F 30.2 in Calm   5 mph 65 % 0 in
12:32 69.4 °F 57.9 °F 30.2 in East 1 mph 5 mph 67 % 0 in
12:42 69.1 °F 56.5 °F 30.2 in East 3 mph 5 mph 64 % 0 in
12:47 69.1 °F 56.8 °F 30.2 in Calm   4 mph 65 % 0 in
12:52 69.6 °F 56.8 °F 30.2 in ENE 5 mph 5 mph 64 % 0 in
13:02 70 °F 56.8 °F 30.2 in SW 1 mph 5 mph 63 % 0 in
13:12 70.2 °F 56.5 °F 30.2 in ENE 4 mph 5 mph 62 % 0 in
13:17 70.3 °F 57.2 °F 30.2 in East 3 mph 5 mph 63 % 0 in
13:22 70.2 °F 57 °F 30.2 in NE 5 mph 5 mph 63 % 0 in
13:32 71.2 °F 56.7 °F 30.2 in Calm   5 mph 60 % 0 in
13:37 71.6 °F 57 °F 30.2 in Calm   5 mph 60 % 0 in
13:42 71.4 °F 57.2 °F 30.2 in Calm   5 mph 61 % 0 in
13:52 72 °F 56.3 °F 30.1 in Calm   5 mph 58 % 0 in
13:57 72.3 °F 56.7 °F 30.1 in SSW 3 mph 5 mph 58 % 0 in
14:02 72.9 °F 55.8 °F 30.1 in SE 2 mph 5 mph 55 % 0 in
14:12 73 °F 53.2 °F 30.1 in East 2 mph 5 mph 50 % 0 in
14:17 72.9 °F 53.6 °F 30.1 in Calm   5 mph 51 % 0 in
14:22 73.8 °F 56.1 °F 30.1 in SE 1 mph 4 mph 54 % 0 in
14:32 74.5 °F 55.8 °F 30.1 in ENE 5 mph 5 mph 52 % 0 in
14:37 74.1 °F 55.4 °F 30.1 in Calm   4 mph 52 % 0 in
14:42 74.7 °F 55.4 °F 30.1 in Calm   5 mph 51 % 0 in
14:47 74.7 °F 55.4 °F 30.1 in Calm   5 mph 51 % 0 in
14:57 74.3 °F 55 °F 30.1 in WNW 5 mph 6 mph 51 % 0 in
15:02 73.9 °F 55.8 °F 30.1 in Calm   6 mph 53 % 0 in
15:12 73.9 °F 54.7 °F 30.1 in East 6 mph 6 mph 51 % 0 in
15:17 74.1 °F 55.9 °F 30.1 in Calm   6 mph 53 % 0 in
15:22 74.7 °F 56.5 °F 30.1 in SE 2 mph 6 mph 53 % 0 in
15:27 74.8 °F 55 °F 30.1 in ENE 3 mph 6 mph 50 % 0 in
15:32 74.3 °F 54.5 °F 30.1 in Calm   6 mph 50 % 0 in
15:42 75 °F 55.6 °F 30.1 in Calm   5 mph 51 % 0 in
15:52 74.7 °F 54.9 °F 30.1 in SW 1 mph 4 mph 50 % 0 in
16:02 75 °F 54.5 °F 30.1 in WNW 1 mph 7 mph 49 % 0 in
16:12 74.8 °F 54.3 °F 30.1 in Calm   3 mph 49 % 0 in
16:17 74.8 °F 54.3 °F 30.1 in West 1 mph 3 mph 49 % 0 in
16:22 74.8 °F 55 °F 30.1 in Calm   3 mph 50 % 0 in
16:32 75.4 °F 54.9 °F 30.1 in Calm   4 mph 49 % 0 in
16:42 75.9 °F 55.4 °F 30.1 in East 1 mph 2 mph 49 % 0 in
16:52 76.1 °F 55.6 °F 30.1 in ENE 2 mph 3 mph 49 % 0 in
16:57 76.5 °F 55.4 °F 30.1 in SW 1 mph 4 mph 48 % 0 in
17:02 76.3 °F 54.5 °F 30.1 in SW 4 mph 4 mph 47 % 0 in
17:07 75.7 °F 54.7 °F 30.1 in Calm   5 mph 48 % 0 in
17:12 76.3 °F 55.8 °F 30.1 in Calm   5 mph 49 % 0 in
17:17 75.7 °F 55.2 °F 30.1 in ENE 4 mph 5 mph 49 % 0 in
17:22 75.2 °F 54.7 °F 30.1 in Calm   5 mph 49 % 0 in
17:27 75.4 °F 55.4 °F 30.1 in NE 2 mph 5 mph 50 % 0 in
17:32 75.4 °F 55.4 °F 30.1 in Calm   5 mph 50 % 0 in
17:37 75.4 °F 54.9 °F 30.1 in Calm   4 mph 49 % 0 in
17:42 75.4 °F 54.9 °F 30.1 in Calm   4 mph 49 % 0 in
17:47 75.4 °F 54.9 °F 30.1 in East 1 mph 4 mph 49 % 0 in
17:52 74.8 °F 55 °F 30.1 in Calm   4 mph 50 % 0 in
18:02 74.8 °F 55 °F 30.1 in Calm   1 mph 50 % 0 in
18:12 74.8 °F 55.6 °F 30.1 in Calm   1 mph 51 % 0 in
18:17 74.5 °F 55.2 °F 30.1 in Calm     51 % 0 in
18:22 74.1 °F 54.3 °F 30.1 in East 1 mph 1 mph 50 % 0 in
18:27 73.8 °F 55 °F 30.1 in Calm   1 mph 52 % 0 in
18:32 73.6 °F 55.4 °F 30.1 in Calm   3 mph 53 % 0 in
18:37 73.2 °F 55 °F 30.1 in Calm   3 mph 53 % 0 in
18:42 73 °F 55.4 °F 30.1 in East 1 mph 6 mph 54 % 0 in
18:52 72.5 °F 54.9 °F 30.1 in ENE 2 mph 4 mph 54 % 0 in
18:57 72.1 °F 54.5 °F 30.1 in East 1 mph 4 mph 54 % 0 in
19:02 72 °F 54.9 °F 30.1 in East 1 mph 4 mph 55 % 0 in
19:07 71.8 °F 54.7 °F 30.1 in ENE 1 mph 3 mph 55 % 0 in
19:12 71.8 °F 55.2 °F 30.1 in Calm   3 mph 56 % 0 in
19:17 71.4 °F 55.4 °F 30.1 in Calm   2 mph 57 % 0 in
19:22 71.1 °F 55 °F 30.1 in Calm   2 mph 57 % 0 in
19:32 70.5 °F 56.5 °F 30.1 in ENE 1 mph 2 mph 61 % 0 in
19:37 70.2 °F 56.1 °F 30.1 in Calm   2 mph 61 % 0 in
19:42 70 °F 55.9 °F 30.1 in NE 2 mph 2 mph 61 % 0 in
19:52 69.8 °F 55.8 °F 30.1 in NE 1 mph 2 mph 61 % 0 in
19:57 69.6 °F 55.6 °F 30.1 in NE 1 mph 2 mph 61 % 0 in
20:02 69.4 °F 55.9 °F 30.1 in Calm   2 mph 62 % 0 in
20:12 68.5 °F 56.3 °F 30.1 in Calm   2 mph 65 % 0 in
20:17 67.8 °F 56.1 °F 30.1 in Calm   1 mph 66 % 0 in
20:22 67.5 °F 56.1 °F 30.1 in Calm   1 mph 67 % 0 in
20:32 67.3 °F 56.3 °F 30.1 in Calm     68 % 0 in
20:37 67.1 °F 56.1 °F 30.1 in Calm     68 % 0 in
20:42 66.7 °F 55.8 °F 30.1 in Calm     68 % 0 in
20:52 66.7 °F 56.7 °F 30.1 in Calm     70 % 0 in
20:57 66.7 °F 56.7 °F 30.1 in NNW 1 mph 1 mph 70 % 0 in
21:02 66.6 °F 56.5 °F 30.1 in Calm   1 mph 70 % 0 in
21:12 66.4 °F 56.7 °F 30.1 in Calm   1 mph 71 % 0 in
21:17 66.2 °F 57.2 °F 30.1 in Calm   1 mph 73 % 0 in
21:22 65.8 °F 57 °F 30.1 in Calm   1 mph 73 % 0 in
21:32 65.5 °F 56.7 °F 30.1 in Calm     73 % 0 in
21:37 65.1 °F 56.3 °F 30.1 in Calm     73 % 0 in
21:42 64.9 °F 56.5 °F 30.1 in Calm     74 % 0 in
21:52 64.6 °F 56.5 °F 30.1 in Calm     75 % 0 in
21:57 64 °F 55.9 °F 30.1 in Calm   1 mph 75 % 0 in
22:02 64 °F 55.9 °F 30.1 in Calm   1 mph 75 % 0 in
22:07 64 °F 55.6 °F 30.1 in Calm   1 mph 74 % 0 in
22:12 64 °F 55.6 °F 30.1 in Calm   1 mph 74 % 0 in
22:17 63.7 °F 55.9 °F 30.1 in Calm   1 mph 76 % 0 in
22:22 63.9 °F 55.8 °F 30.1 in Calm   1 mph 75 % 0 in
22:27 64 °F 55.9 °F 30.1 in Calm   1 mph 75 % 0 in
22:32 64 °F 55.9 °F 30.1 in Calm   1 mph 75 % 0 in
22:37 63.9 °F 55.8 °F 30.1 in Calm     75 % 0 in
22:42 63.7 °F 55.6 °F 30.1 in Calm     75 % 0 in
22:47 63.7 °F 55.6 °F 30.1 in Calm     75 % 0 in
22:52 63.7 °F 55.6 °F 30.1 in Calm     75 % 0 in
23:02 63.5 °F 55.4 °F 30.1 in Calm     75 % 0 in
23:12 63 °F 55.6 °F 30.1 in WNW 1 mph   77 % 0 in
23:17 62.2 °F 55.2 °F 30.1 in Calm   1 mph 78 % 0 in
23:22 62.2 °F 54.9 °F 30.1 in Calm   1 mph 77 % 0 in
23:32 63.1 °F 54.7 °F 30.1 in Calm   1 mph 74 % 0 in
23:37 63.3 °F 54.9 °F 30.1 in Calm   1 mph 74 % 0 in
23:47 61.7 °F 54.9 °F 30.1 in Calm   1 mph 78 % 0 in
23:52 61.2 °F 54.7 °F 30.1 in Calm   1 mph 79 % 0 in
23:57 61.2 °F 54.3 °F 30.1 in Calm   1 mph 78 % 0 in
Meteo18
Compliments of Weather Underground - 4 mb

Script developed by  Jim McMurry - jmcmurry@mwt.net Adapted for the template by  Wim van der Kuil - Leuven-Template.eu

You find our weather info also at:

European Weather Network

Weather Underground

Equipment we use:

Weather-station
Davis Vue

Weather-program
Meteohub

Weather-server
Raspberry PI 2 B+

Provider
1 and 1

Davis Vue

Meteohub

Raspberry PI 2 B+

1 and 1